Phoenix, Arizona
Traffic Map
Current Weather Conditions
Phoenix, Arizona
Few Clouds
Few Clouds
29°
Feels Like: 29°
Wind Chill: 29° Ceiling: Unl
Heat Index: 29° Visibility: 10mi
Dew Point: -4° Wind: 5mph
Humidity: 11% Direction: 350° (N)
Pressure: 29.88in Gusts: 0mph
Raw Report DataKPHX 191851Z 35004KT 10SM FEW120 FEW200 29/M04 A2988 RMK AO2 SLP102 T02941039
Traffic Incident Summary
Active as of:
Severity:
Category:
InformationThere was an issue retrieving the traffic information for this location. Please try a different location or try again shortly.
Advertisements
Track Severe Weather on mobile